createdAt,value
2023-06-22T00:00:13.119Z,13.38
2023-06-22T00:02:40.501Z,14.32
2023-06-22T00:05:08.020Z,16.20
2023-06-22T00:07:35.328Z,18.38
2023-06-22T00:10:02.610Z,18.65
2023-06-22T00:12:29.915Z,17.90
2023-06-22T00:14:57.129Z,20.00
2023-06-22T00:17:24.438Z,20.00
2023-06-22T00:19:54.664Z,21.02
2023-06-22T00:22:29.550Z,22.42
2023-06-22T00:24:57.525Z,22.52
2023-06-22T00:27:24.820Z,21.80
2023-06-22T00:29:52.145Z,20.80
2023-06-22T00:32:19.977Z,20.30
2023-06-22T00:34:48.883Z,20.98
2023-06-22T00:37:16.181Z,20.23
2023-06-22T00:39:46.507Z,20.30
2023-06-22T00:42:13.683Z,19.33
2023-06-22T00:44:41.713Z,19.35
2023-06-22T00:47:10.200Z,18.75
2023-06-22T00:49:37.604Z,19.67
2023-06-22T00:52:04.992Z,20.40
2023-06-22T00:54:32.284Z,18.97
2023-06-22T00:57:01.167Z,20.45
2023-06-22T00:59:29.695Z,20.30
2023-06-22T01:01:57.216Z,17.73
2023-06-22T01:04:36.276Z,15.60
2023-06-22T01:07:09.617Z,15.23
2023-06-22T01:10:03.947Z,13.63
2023-06-22T01:12:35.581Z,12.70
2023-06-22T01:15:22.278Z,14.25
2023-06-22T01:17:50.940Z,13.10
2023-06-22T01:20:18.695Z,13.57
2023-06-22T01:23:23.348Z,13.40
2023-06-22T01:26:00.433Z,13.70
2023-06-22T01:28:45.800Z,13.05
2023-06-22T01:31:16.865Z,11.73
2023-06-22T01:33:46.328Z,12.17
2023-06-22T01:36:15.996Z,11.65
2023-06-22T01:38:43.495Z,11.20
2023-06-22T01:41:12.028Z,10.82
2023-06-22T01:43:40.187Z,11.43
2023-06-22T01:46:07.536Z,10.23
2023-06-22T01:48:35.239Z,10.50
2023-06-22T01:51:04.249Z,9.82
2023-06-22T01:53:31.530Z,10.30
2023-06-22T01:55:59.385Z,10.35
2023-06-22T01:58:32.646Z,10.17
2023-06-22T02:01:10.980Z,10.32
2023-06-22T02:03:55.184Z,9.57
2023-06-22T02:06:26.365Z,9.40
2023-06-22T02:08:58.250Z,9.35
2023-06-22T02:11:28.570Z,10.30
2023-06-22T02:13:58.698Z,9.65
2023-06-22T02:16:31.036Z,9.85
2023-06-22T02:19:04.248Z,9.68
2023-06-22T02:21:35.334Z,10.23
2023-06-22T02:24:02.651Z,10.20
2023-06-22T02:26:32.039Z,10.23
2023-06-22T02:28:59.535Z,10.32
2023-06-22T02:31:31.489Z,10.23
2023-06-22T02:33:59.808Z,9.93
2023-06-22T02:36:28.218Z,10.00
2023-06-22T02:38:58.472Z,10.15
2023-06-22T02:41:25.781Z,9.55
2023-06-22T02:43:53.061Z,9.63
2023-06-22T02:46:20.907Z,10.60
2023-06-22T02:48:48.145Z,9.03
2023-06-22T02:51:16.302Z,9.77
2023-06-22T02:53:46.560Z,10.43
2023-06-22T02:56:15.207Z,10.32
2023-06-22T02:58:42.433Z,9.40
2023-06-22T03:01:14.158Z,9.73
2023-06-22T03:03:43.537Z,8.60
2023-06-22T03:06:15.209Z,8.30
2023-06-22T03:08:43.254Z,8.27
2023-06-22T03:11:11.496Z,7.38
2023-06-22T03:13:39.047Z,8.07
2023-06-22T03:16:08.040Z,7.75
2023-06-22T03:18:35.411Z,7.78
2023-06-22T03:21:03.539Z,7.97
2023-06-22T03:23:32.460Z,7.60
2023-06-22T03:25:59.708Z,7.60
2023-06-22T03:28:26.996Z,7.35
2023-06-22T03:30:54.203Z,7.15
2023-06-22T03:33:21.471Z,6.80
2023-06-22T03:35:48.880Z,6.35
2023-06-22T03:38:16.252Z,6.43
2023-06-22T03:40:43.607Z,6.03
2023-06-22T03:43:10.842Z,6.03
2023-06-22T03:45:38.364Z,5.82
2023-06-22T03:48:05.919Z,6.00
2023-06-22T03:50:33.261Z,5.47
2023-06-22T03:53:00.552Z,5.55
2023-06-22T03:55:27.792Z,5.72
2023-06-22T03:57:57.946Z,5.75
2023-06-22T04:00:25.270Z,4.53
2023-06-22T04:02:52.603Z,4.33
2023-06-22T04:05:20.419Z,4.57
2023-06-22T04:07:47.638Z,5.05
2023-06-22T04:10:17.366Z,4.60
2023-06-22T04:12:45.564Z,4.97
2023-06-22T04:15:13.349Z,4.10
2023-06-22T04:17:40.625Z,4.68
2023-06-22T04:20:08.864Z,5.05
2023-06-22T04:22:36.236Z,4.28
2023-06-22T04:25:03.527Z,4.60
2023-06-22T04:27:30.748Z,4.73
2023-06-22T04:30:01.577Z,4.32
2023-06-22T04:32:29.032Z,4.40
2023-06-22T04:34:56.380Z,5.32
2023-06-22T04:37:24.492Z,5.03
2023-06-22T04:39:51.750Z,4.50
2023-06-22T04:42:18.971Z,4.38
2023-06-22T04:44:46.188Z,4.75
2023-06-22T04:47:13.492Z,4.38
2023-06-22T04:49:44.258Z,4.53
2023-06-22T04:52:13.648Z,4.80
2023-06-22T04:54:48.598Z,5.07
2023-06-22T04:57:16.009Z,5.22
2023-06-22T04:59:43.655Z,4.82
2023-06-22T05:02:11.200Z,4.40
2023-06-22T05:04:42.120Z,4.63
2023-06-22T05:07:10.196Z,5.05
2023-06-22T05:09:37.543Z,6.05
2023-06-22T05:12:07.192Z,4.80
2023-06-22T05:14:34.975Z,5.05
2023-06-22T05:17:05.021Z,5.10
2023-06-22T05:19:35.259Z,5.75
2023-06-22T05:22:02.898Z,5.50
2023-06-22T05:24:30.226Z,5.40
2023-06-22T05:26:57.389Z,5.65
2023-06-22T05:29:24.559Z,5.70
2023-06-22T05:31:51.859Z,5.05
2023-06-22T05:34:19.216Z,5.70
2023-06-22T05:36:46.413Z,5.93
2023-06-22T05:39:14.906Z,5.70
2023-06-22T05:41:43.462Z,5.47
2023-06-22T05:44:10.827Z,6.22
2023-06-22T05:46:38.421Z,6.63
2023-06-22T05:49:05.613Z,6.47
2023-06-22T05:51:32.819Z,7.10
2023-06-22T05:54:00.171Z,6.47
2023-06-22T05:56:27.315Z,6.28
2023-06-22T05:58:54.526Z,6.95
2023-06-22T06:01:21.781Z,7.13
2023-06-22T06:03:50.627Z,6.70
2023-06-22T06:06:18.299Z,7.33
2023-06-22T06:08:45.601Z,7.22
2023-06-22T06:11:12.842Z,7.57
2023-06-22T06:13:40.087Z,7.68
2023-06-22T06:16:07.309Z,7.95
2023-06-22T06:18:34.580Z,7.70
2023-06-22T06:21:01.854Z,8.02
2023-06-22T06:23:30.088Z,8.13
2023-06-22T06:25:57.312Z,7.95
2023-06-22T06:28:26.410Z,8.95
2023-06-22T06:30:53.639Z,8.13
2023-06-22T06:33:23.780Z,8.43
2023-06-22T06:35:52.343Z,7.95
2023-06-22T06:38:19.568Z,8.45
2023-06-22T06:40:46.889Z,9.52
2023-06-22T06:43:14.125Z,8.30
2023-06-22T06:45:41.471Z,8.85
2023-06-22T06:48:08.750Z,8.02
2023-06-22T06:50:36.046Z,8.25
2023-06-22T06:53:03.372Z,8.65
2023-06-22T06:55:34.079Z,8.27
2023-06-22T06:58:02.928Z,9.50
2023-06-22T07:00:30.433Z,8.95
2023-06-22T07:02:57.830Z,8.50
2023-06-22T07:05:25.058Z,9.07
2023-06-22T07:07:52.345Z,8.97
2023-06-22T07:10:19.548Z,9.02
2023-06-22T07:12:46.725Z,8.50
2023-06-22T07:15:14.861Z,9.35
2023-06-22T07:17:42.508Z,9.20
2023-06-22T07:20:11.697Z,8.33
2023-06-22T07:22:40.047Z,8.93
2023-06-22T07:25:11.380Z,9.15
2023-06-22T07:27:43.811Z,9.50
2023-06-22T07:30:11.842Z,9.07
2023-06-22T07:32:39.157Z,9.13
2023-06-22T07:35:07.549Z,10.00
2023-06-22T07:37:36.318Z,9.85
2023-06-22T07:40:07.527Z,9.65
2023-06-22T07:42:35.061Z,9.75
2023-06-22T07:45:07.049Z,10.00
2023-06-22T07:47:36.564Z,10.60
2023-06-22T07:50:04.738Z,10.38
2023-06-22T07:52:32.848Z,10.00
2023-06-22T07:55:00.182Z,10.68
2023-06-22T07:57:33.558Z,11.23
2023-06-22T08:00:01.932Z,11.00
2023-06-22T08:02:41.146Z,11.20
2023-06-22T08:05:20.141Z,11.30
2023-06-22T08:07:57.297Z,11.25
2023-06-22T08:10:26.057Z,10.00
2023-06-22T08:12:53.696Z,10.52
2023-06-22T08:15:20.960Z,11.30
2023-06-22T08:17:48.198Z,11.05
2023-06-22T08:20:15.528Z,10.68
2023-06-22T08:22:43.887Z,10.97
2023-06-22T08:25:11.980Z,10.98
2023-06-22T08:27:39.438Z,11.60
2023-06-22T08:30:07.999Z,11.60
2023-06-22T08:32:35.378Z,11.23
2023-06-22T08:35:02.688Z,10.23
2023-06-22T08:37:33.008Z,11.52
2023-06-22T08:40:02.294Z,10.48
2023-06-22T08:42:29.742Z,10.35
2023-06-22T08:44:57.015Z,11.38
2023-06-22T08:47:24.673Z,11.77
2023-06-22T08:49:52.049Z,10.07
2023-06-22T08:52:24.479Z,10.45
2023-06-22T08:54:52.566Z,11.15
2023-06-22T08:57:19.840Z,10.88
2023-06-22T08:59:47.049Z,10.90
2023-06-22T09:02:14.312Z,10.35
2023-06-22T09:04:42.890Z,10.98
2023-06-22T09:07:10.237Z,10.95
2023-06-22T09:09:37.517Z,10.88
2023-06-22T09:12:05.549Z,10.87
2023-06-22T09:14:33.006Z,10.32
2023-06-22T09:17:00.315Z,9.65
2023-06-22T09:19:27.626Z,9.93
2023-06-22T09:21:54.999Z,10.25
2023-06-22T09:24:22.468Z,9.80
2023-06-22T09:26:49.851Z,9.85
2023-06-22T09:29:17.208Z,9.93
2023-06-22T09:31:45.417Z,9.43
2023-06-22T09:34:12.687Z,9.38
2023-06-22T09:36:40.974Z,9.67
2023-06-22T09:39:08.875Z,9.18
2023-06-22T09:41:36.075Z,9.52
2023-06-22T09:44:03.352Z,10.57
2023-06-22T09:46:30.646Z,9.93
2023-06-22T09:48:57.922Z,8.97
2023-06-22T09:51:25.190Z,9.45
2023-06-22T09:53:55.083Z,9.38
2023-06-22T09:56:22.459Z,9.10
2023-06-22T09:58:52.138Z,9.23
2023-06-22T10:01:22.211Z,8.80
2023-06-22T10:03:49.645Z,9.35
2023-06-22T10:06:16.997Z,9.50
2023-06-22T10:08:44.277Z,8.98
2023-06-22T10:11:11.674Z,8.93
2023-06-22T10:13:38.862Z,8.80
2023-06-22T10:16:06.284Z,9.10
2023-06-22T10:18:33.663Z,9.07
2023-06-22T10:21:01.208Z,8.25
2023-06-22T10:23:28.480Z,8.73
2023-06-22T10:25:55.693Z,8.57
2023-06-22T10:28:22.911Z,8.77
2023-06-22T10:30:50.116Z,9.35
2023-06-22T10:33:17.644Z,8.93
2023-06-22T10:35:44.890Z,8.73
2023-06-22T10:38:12.211Z,8.77
2023-06-22T10:40:40.730Z,8.75
2023-06-22T10:43:08.006Z,9.02
2023-06-22T10:45:35.262Z,8.85
2023-06-22T10:48:02.775Z,9.20
2023-06-22T10:50:30.279Z,8.37
2023-06-22T10:53:00.374Z,8.77
2023-06-22T10:55:31.074Z,8.35
2023-06-22T10:58:06.298Z,8.07
2023-06-22T11:00:34.952Z,8.88
2023-06-22T11:03:02.322Z,8.67
2023-06-22T11:05:29.955Z,9.02
2023-06-22T11:07:57.548Z,9.02
2023-06-22T11:10:25.050Z,8.80
2023-06-22T11:12:52.295Z,8.82
2023-06-22T11:15:19.584Z,8.97
2023-06-22T11:17:47.059Z,8.30
2023-06-22T11:20:14.616Z,8.38
2023-06-22T11:22:42.301Z,8.27
2023-06-22T11:25:10.151Z,9.40
2023-06-22T11:27:37.616Z,8.67
2023-06-22T11:30:05.549Z,8.43
2023-06-22T11:32:33.174Z,9.77
2023-06-22T11:35:00.449Z,8.43
2023-06-22T11:37:27.873Z,8.93
2023-06-22T11:40:07.203Z,8.53
2023-06-22T11:42:35.557Z,8.70
2023-06-22T11:45:03.572Z,9.57
2023-06-22T11:47:30.926Z,8.82
2023-06-22T11:49:58.208Z,9.10
2023-06-22T11:52:25.500Z,8.10
2023-06-22T11:54:52.678Z,8.88
2023-06-22T11:57:19.944Z,9.05
2023-06-22T11:59:47.361Z,8.35
2023-06-22T12:02:14.724Z,9.60
2023-06-22T12:04:41.957Z,8.73
2023-06-22T12:07:09.177Z,9.25
2023-06-22T12:09:36.373Z,8.98
2023-06-22T12:12:04.085Z,8.18
2023-06-22T12:14:32.525Z,8.85
2023-06-22T12:16:59.998Z,8.60
2023-06-22T12:19:27.210Z,8.45
2023-06-22T12:21:54.463Z,9.02
2023-06-22T12:24:21.677Z,8.90
2023-06-22T12:26:49.306Z,8.98
2023-06-22T12:29:16.472Z,8.60
2023-06-22T12:31:43.788Z,9.57
2023-06-22T12:34:11.202Z,8.73
2023-06-22T12:36:38.427Z,8.43
2023-06-22T12:39:05.679Z,8.15
2023-06-22T12:41:33.390Z,8.73
2023-06-22T12:44:00.593Z,8.40
2023-06-22T12:46:27.798Z,8.43
2023-06-22T12:48:54.975Z,9.00
2023-06-22T12:51:25.097Z,8.38
2023-06-22T12:53:52.482Z,7.87
2023-06-22T12:56:19.912Z,8.00
2023-06-22T12:58:47.243Z,8.32
2023-06-22T13:01:14.709Z,8.52
2023-06-22T13:03:43.309Z,8.10
2023-06-22T13:06:10.543Z,8.83
2023-06-22T13:09:18.018Z,8.13
2023-06-22T13:11:24.965Z,7.65
2023-06-22T13:13:52.165Z,8.40
2023-06-22T13:16:19.415Z,8.48
2023-06-22T13:18:46.623Z,8.37
2023-06-22T13:21:15.340Z,8.70
2023-06-22T13:23:42.540Z,7.93
2023-06-22T13:26:09.852Z,8.40
2023-06-22T13:28:37.030Z,8.07
2023-06-22T13:31:04.355Z,8.17
2023-06-22T13:33:31.559Z,8.65
2023-06-22T13:35:58.811Z,7.70
2023-06-22T13:38:26.015Z,8.23
2023-06-22T13:40:53.299Z,8.10
2023-06-22T13:43:20.529Z,7.83
2023-06-22T13:45:47.935Z,7.93
2023-06-22T13:48:15.452Z,9.02
2023-06-22T13:50:42.663Z,7.25
2023-06-22T13:53:09.869Z,7.75
2023-06-22T13:55:37.083Z,9.20
2023-06-22T13:58:04.313Z,7.57
2023-06-22T14:00:31.801Z,8.38
2023-06-22T14:02:59.435Z,7.90
2023-06-22T14:05:26.656Z,7.90
2023-06-22T14:07:53.938Z,8.33
2023-06-22T14:10:21.237Z,7.97
2023-06-22T14:12:48.387Z,8.13
2023-06-22T14:15:15.637Z,8.57
2023-06-22T14:17:42.995Z,7.95
2023-06-22T14:20:10.702Z,8.20
2023-06-22T14:22:37.943Z,7.55
2023-06-22T14:25:06.282Z,7.95
2023-06-22T14:27:33.639Z,8.07
2023-06-22T14:30:00.888Z,7.97
2023-06-22T14:32:31.208Z,7.93
2023-06-22T14:34:58.517Z,7.97
2023-06-22T14:37:25.687Z,8.05
2023-06-22T14:39:52.989Z,8.40
2023-06-22T14:42:20.219Z,8.20
2023-06-22T14:44:47.405Z,7.73
2023-06-22T14:47:14.684Z,7.82
2023-06-22T14:49:42.426Z,8.32
2023-06-22T14:52:09.815Z,8.27
2023-06-22T14:54:37.006Z,9.10
2023-06-22T14:57:04.333Z,7.37
2023-06-22T14:59:31.603Z,7.95
2023-06-22T15:01:58.833Z,7.75
2023-06-22T15:04:27.352Z,7.55
2023-06-22T15:06:55.081Z,7.68
2023-06-22T15:09:22.372Z,8.20
2023-06-22T15:11:50.008Z,7.78
2023-06-22T15:14:17.252Z,8.02
2023-06-22T15:16:44.473Z,7.68
2023-06-22T15:19:13.707Z,7.82
2023-06-22T15:21:40.929Z,8.13
2023-06-22T15:24:08.436Z,8.90
2023-06-22T15:26:35.631Z,8.85
2023-06-22T15:29:03.065Z,8.10
2023-06-22T15:31:30.304Z,7.68
2023-06-22T15:33:57.728Z,7.20
2023-06-22T15:36:24.951Z,7.70
2023-06-22T15:38:52.232Z,7.97
2023-06-22T15:41:19.388Z,7.55
2023-06-22T15:43:46.600Z,8.35
2023-06-22T15:46:14.055Z,8.10
2023-06-22T15:48:41.373Z,7.40
2023-06-22T15:51:08.603Z,7.85
2023-06-22T15:53:35.860Z,7.97
2023-06-22T15:56:03.051Z,7.72
2023-06-22T15:58:30.269Z,7.93
2023-06-22T16:00:57.552Z,7.15
2023-06-22T16:03:24.870Z,7.57
2023-06-22T16:05:52.123Z,7.88
2023-06-22T16:08:19.396Z,7.80
2023-06-22T16:10:46.548Z,7.87
2023-06-22T16:13:13.795Z,7.07
2023-06-22T16:15:40.979Z,7.68
2023-06-22T16:18:08.941Z,7.63
2023-06-22T16:20:36.217Z,8.02
2023-06-22T16:23:03.701Z,8.37
2023-06-22T16:25:30.926Z,8.13
2023-06-22T16:27:58.185Z,7.80
2023-06-22T16:30:25.404Z,7.50
2023-06-22T16:32:59.723Z,7.72
2023-06-22T16:35:27.533Z,6.70
2023-06-22T16:37:55.706Z,7.47
2023-06-22T16:40:23.848Z,8.05
2023-06-22T16:42:53.314Z,7.13
2023-06-22T16:45:21.878Z,8.15
2023-06-22T16:47:51.903Z,8.00
2023-06-22T16:50:19.800Z,8.10
2023-06-22T16:52:48.011Z,8.10
2023-06-22T16:55:15.655Z,8.00
2023-06-22T16:57:43.513Z,7.90
2023-06-22T17:00:12.934Z,8.40
2023-06-22T17:02:47.454Z,7.70
2023-06-22T17:05:15.582Z,8.32
2023-06-22T17:07:50.139Z,8.30
2023-06-22T17:10:18.567Z,7.93
2023-06-22T17:12:46.723Z,8.33
2023-06-22T17:15:14.284Z,7.75
2023-06-22T17:17:41.803Z,8.50
2023-06-22T17:20:09.606Z,8.05
2023-06-22T17:22:37.133Z,7.85
2023-06-22T17:25:07.031Z,8.50
2023-06-22T17:27:34.922Z,8.35
2023-06-22T17:30:06.520Z,8.45
2023-06-22T17:32:33.799Z,7.85
2023-06-22T17:35:01.181Z,8.07
2023-06-22T17:37:34.710Z,7.97
2023-06-22T17:40:01.974Z,7.50
2023-06-22T17:42:29.325Z,7.85
2023-06-22T17:45:01.732Z,8.13
2023-06-22T17:47:29.550Z,8.02
2023-06-22T17:50:05.634Z,8.00
2023-06-22T17:52:33.323Z,8.07
2023-06-22T17:57:38.624Z,7.85
2023-06-22T18:00:10.174Z,8.82
2023-06-22T18:02:43.903Z,8.10
2023-06-22T18:05:11.875Z,7.55
2023-06-22T18:07:39.305Z,8.20
2023-06-22T18:10:08.749Z,8.20
2023-06-22T18:12:37.623Z,9.02
2023-06-22T18:15:05.522Z,8.67
2023-06-22T18:17:33.687Z,8.50
2023-06-22T18:20:02.306Z,8.85
2023-06-22T18:22:30.013Z,8.73
2023-06-22T18:24:57.438Z,9.20
2023-06-22T18:27:25.697Z,8.20
2023-06-22T18:29:56.324Z,9.18
2023-06-22T18:32:23.710Z,9.18
2023-06-22T18:34:52.585Z,8.23
2023-06-22T18:37:21.066Z,9.23
2023-06-22T18:39:54.108Z,9.37
2023-06-22T18:42:21.974Z,9.80
2023-06-22T18:44:53.933Z,8.75
2023-06-22T18:47:29.275Z,9.20
2023-06-22T18:50:08.097Z,9.32
2023-06-22T18:52:37.238Z,9.10
2023-06-22T18:55:05.761Z,8.70
2023-06-22T18:57:34.456Z,9.32
2023-06-22T19:00:13.905Z,9.40
2023-06-22T19:02:44.084Z,9.60
2023-06-22T19:05:14.473Z,8.70
2023-06-22T19:07:58.801Z,9.68
2023-06-22T19:10:38.286Z,8.75
2023-06-22T19:13:19.763Z,8.75
2023-06-22T19:16:13.961Z,8.57
2023-06-22T19:18:42.017Z,9.23
2023-06-22T19:21:13.533Z,9.27
2023-06-22T19:23:42.344Z,9.43
2023-06-22T19:26:17.857Z,9.10
2023-06-22T19:28:49.539Z,9.30
2023-06-22T19:31:18.851Z,8.63
2023-06-22T19:33:46.213Z,8.88
2023-06-22T19:36:13.925Z,8.27
2023-06-22T19:38:41.326Z,8.18
2023-06-22T19:41:09.858Z,8.25
2023-06-22T19:43:37.504Z,8.27
2023-06-22T19:46:04.805Z,8.57
2023-06-22T19:48:32.402Z,8.60
2023-06-22T19:51:04.486Z,8.55
2023-06-22T19:53:32.073Z,7.68
2023-06-22T19:55:59.413Z,9.13
2023-06-22T19:58:26.986Z,8.75
2023-06-22T20:00:59.869Z,8.65
2023-06-22T20:03:31.901Z,7.97
2023-06-22T20:06:12.702Z,8.18
2023-06-22T20:09:05.330Z,8.37
2023-06-22T20:11:34.428Z,7.60
2023-06-22T20:14:02.470Z,7.65
2023-06-22T20:16:30.369Z,8.10
2023-06-22T20:19:12.779Z,8.75
2023-06-22T20:21:41.231Z,7.70
2023-06-22T20:24:09.868Z,8.15
2023-06-22T20:26:43.065Z,8.73
2023-06-22T20:29:26.194Z,7.93
2023-06-22T20:32:13.882Z,7.90
2023-06-22T20:34:49.030Z,7.50
2023-06-22T20:37:19.854Z,8.38
2023-06-22T20:39:49.283Z,8.68
2023-06-22T20:42:18.655Z,7.82
2023-06-22T20:44:51.313Z,7.40
2023-06-22T20:47:21.344Z,7.97
2023-06-22T20:49:50.148Z,8.50
2023-06-22T20:52:18.772Z,8.10
2023-06-22T20:54:46.524Z,8.43
2023-06-22T20:57:13.803Z,8.60
2023-06-22T20:59:41.060Z,9.27
2023-06-22T21:02:09.131Z,10.45
2023-06-22T21:04:38.033Z,10.95
2023-06-22T21:07:06.395Z,11.00
2023-06-22T21:09:46.029Z,10.57
2023-06-22T21:12:19.393Z,10.00
2023-06-22T21:14:46.732Z,10.07
2023-06-22T21:17:13.960Z,10.82
2023-06-22T21:19:41.210Z,10.98
2023-06-22T21:22:08.552Z,10.73
2023-06-22T21:24:35.757Z,10.67
2023-06-22T21:27:03.615Z,10.20
2023-06-22T21:29:30.775Z,10.95
2023-06-22T21:31:58.035Z,11.10
2023-06-22T21:34:26.516Z,11.88
2023-06-22T21:36:55.246Z,11.83
2023-06-22T21:39:22.398Z,12.60
2023-06-22T21:41:49.666Z,11.98
2023-06-22T21:44:16.886Z,12.05
2023-06-22T21:46:44.099Z,12.40
2023-06-22T21:49:11.321Z,12.27
2023-06-22T21:51:38.574Z,11.27
2023-06-22T21:54:05.872Z,11.52
2023-06-22T21:56:33.061Z,11.20
2023-06-22T21:59:00.236Z,11.93
2023-06-22T22:01:27.657Z,11.80
2023-06-22T22:03:54.975Z,11.00
2023-06-22T22:06:24.316Z,12.23
2023-06-22T22:08:51.528Z,11.98
2023-06-22T22:11:18.887Z,11.85
2023-06-22T22:13:46.598Z,11.30
2023-06-22T22:16:15.017Z,11.93
2023-06-22T22:18:42.464Z,11.05
2023-06-22T22:21:09.792Z,11.13
2023-06-22T22:23:36.955Z,10.80
2023-06-22T22:26:04.775Z,10.40
2023-06-22T22:28:32.364Z,11.23
2023-06-22T22:31:01.854Z,11.23
2023-06-22T22:33:30.292Z,11.52
2023-06-22T22:36:00.246Z,10.98
2023-06-22T22:38:27.467Z,10.80
2023-06-22T22:40:54.752Z,11.43
2023-06-22T22:43:21.978Z,10.98
2023-06-22T22:45:49.209Z,10.60
2023-06-22T22:48:16.433Z,11.10
2023-06-22T22:50:43.940Z,10.40
2023-06-22T22:53:11.108Z,11.07
2023-06-22T22:55:38.305Z,10.10
2023-06-22T22:58:06.079Z,9.93
2023-06-22T23:00:33.671Z,10.88
2023-06-22T23:03:03.011Z,10.50
2023-06-22T23:05:30.772Z,10.65
2023-06-22T23:07:58.225Z,10.15
2023-06-22T23:10:25.485Z,10.13
2023-06-22T23:12:52.651Z,10.63
2023-06-22T23:15:20.011Z,9.50
2023-06-22T23:17:47.293Z,10.25
2023-06-22T23:20:18.372Z,10.15
2023-06-22T23:22:45.802Z,10.70
2023-06-22T23:25:13.426Z,10.15
2023-06-22T23:27:40.708Z,11.17
2023-06-22T23:30:11.275Z,10.98
2023-06-22T23:32:39.342Z,11.15
2023-06-22T23:35:13.075Z,10.50
2023-06-22T23:37:42.928Z,10.63
2023-06-22T23:40:17.478Z,10.83
2023-06-22T23:42:47.997Z,11.02
2023-06-22T23:45:22.800Z,10.98
2023-06-22T23:47:50.828Z,9.93
2023-06-22T23:50:19.306Z,9.75
2023-06-22T23:52:50.458Z,9.70
2023-06-22T23:55:19.294Z,10.07
2023-06-22T23:57:46.504Z,8.95
